Time;durP1;ratioP1;P1;durP2;ratioP2;P2;SDS_P1;SDS_P2;PMS_P1;PMS_P2;Temp;Humidity;BMP_temperature;BMP_pressure;BME280_temperature;BME280_humidity;BME280_pressure;Samples;Min_cycle;Max_cycle;Signal;HPM_P1;HPM_P2
2022/12/04 00:01:38;;;;;;;;;;;;;;;6.58;57.66;94907.19;5071259;28;20058;-71
2022/12/04 00:04:03;;;;;;;;;;;;;;;6.49;58.04;94902.53;5071134;28;20020;-71
2022/12/04 00:06:29;;;;;;;;;;;;;;;6.53;58.36;94904.63;5052799;28;20408;-71
2022/12/04 00:08:54;;;;;;;;;;;;;;;6.66;57.92;94904.72;5071173;28;20808;-71
2022/12/04 00:11:21;;;;;;;;;;;;;;;6.77;58.02;94911.44;5071103;28;20469;-71
2022/12/04 00:13:46;;;;;;;;;;;;;;;6.86;58.25;94908.13;5071202;28;20013;-71
2022/12/04 00:16:14;;;;;;;;;;;;;;;6.72;57.96;94902.78;5052667;28;20473;-72
2022/12/04 00:18:39;;;;;;;;;;;;;;;6.65;57.84;94905.75;5052791;28;20020;-71
2022/12/04 00:21:09;;;;;;;;;;;;;;;6.80;57.62;94923.28;5052588;28;20013;-72
2022/12/04 00:23:35;;;;;;;;;;;;;;;6.62;57.73;94910.84;5069762;28;20103;-71
2022/12/04 00:26:01;;;;;;;;;;;;;;;6.58;58.11;94900.03;5070542;28;20103;-71
2022/12/04 00:28:26;;;;;;;;;;;;;;;6.66;58.36;94912.63;5070880;28;20009;-72
2022/12/04 00:30:51;;;;;;;;;;;;;;;6.85;57.60;94911.84;5070755;28;20009;-72
2022/12/04 00:33:17;;;;;;;;;;;;;;;6.62;57.66;94898.41;5052576;28;20021;-69
2022/12/04 00:35:42;;;;;;;;;;;;;;;6.66;57.47;94896.78;5052283;28;20013;-70
2022/12/04 00:38:07;;;;;;;;;;;;;;;6.78;57.41;94896.34;5070401;28;20025;-71
2022/12/04 00:40:32;;;;;;;;;;;;;;;6.35;57.88;94898.25;5070319;28;20017;-71
2022/12/04 00:42:57;;;;;;;;;;;;;;;6.58;58.45;94907.19;5070239;28;20016;-71
2022/12/04 00:45:23;;;;;;;;;;;;;;;6.73;57.60;94920.22;5069997;28;20013;-70
2022/12/04 00:47:48;;;;;;;;;;;;;;;6.90;58.02;94915.22;5070004;28;20062;-70
2022/12/04 00:50:13;;;;;;;;;;;;;;;7.01;57.08;94911.38;5052169;28;20017;-71
2022/12/04 00:52:38;;;;;;;;;;;;;;;7.06;57.37;94915.78;5051935;28;20060;-70
2022/12/04 00:55:04;;;;;;;;;;;;;;;6.76;56.86;94909.88;5069846;28;20021;-70
2022/12/04 00:57:29;;;;;;;;;;;;;;;6.64;58.19;94909.47;5052257;28;20017;-71
2022/12/04 00:59:54;;;;;;;;;;;;;;;6.84;57.68;94908.44;5052443;28;20020;-71
2022/12/04 01:02:19;;;;;;;;;;;;;;;6.68;58.57;94897.28;5052249;28;20045;-71
2022/12/04 01:04:44;;;;;;;;;;;;;;;6.67;57.92;94902.84;5069976;28;20013;-71
2022/12/04 01:07:10;;;;;;;;;;;;;;;6.67;57.67;94906.28;5069310;28;20016;-71
2022/12/04 01:09:35;;;;;;;;;;;;;;;6.74;58.15;94901.41;5069896;28;20104;-71
2022/12/04 01:12:00;;;;;;;;;;;;;;;6.80;57.82;94902.13;5052052;28;20040;-70
2022/12/04 01:14:25;;;;;;;;;;;;;;;6.92;58.13;94901.72;5051970;28;20013;-71
2022/12/04 01:16:51;;;;;;;;;;;;;;;6.68;58.21;94912.34;5069619;28;20013;-71
2022/12/04 01:19:16;;;;;;;;;;;;;;;6.88;58.05;94909.44;5069981;28;20013;-71
2022/12/04 01:21:41;;;;;;;;;;;;;;;6.86;57.54;94913.41;5070005;28;20584;-70
2022/12/04 01:24:07;;;;;;;;;;;;;;;7.00;57.45;94919.56;5052027;28;20013;-72
2022/12/04 01:26:33;;;;;;;;;;;;;;;7.10;57.78;94916.00;5051489;28;20055;-71
2022/12/04 01:28:58;;;;;;;;;;;;;;;7.04;57.45;94910.00;5069709;28;20049;-71
2022/12/04 01:31:23;;;;;;;;;;;;;;;7.13;57.48;94903.00;5069845;28;20066;-71
2022/12/04 01:33:49;;;;;;;;;;;;;;;7.01;57.18;94915.84;5071883;28;20015;-71
2022/12/04 01:36:16;;;;;;;;;;;;;;;6.93;56.87;94909.38;5076137;28;20013;-72
2022/12/04 01:38:41;;;;;;;;;;;;;;;6.90;57.88;94917.06;5076530;28;20531;-72
2022/12/04 01:41:08;;;;;;;;;;;;;;;6.99;57.60;94913.50;5076329;28;20094;-71
2022/12/04 01:43:34;;;;;;;;;;;;;;;7.00;56.90;94919.56;5058745;28;20017;-71
2022/12/04 01:45:59;;;;;;;;;;;;;;;7.08;57.02;94924.22;5076018;28;20495;-71
2022/12/04 01:48:30;;;;;;;;;;;;;;;7.14;56.65;94927.59;5076639;28;20009;-71
2022/12/04 01:51:28;;;;;;;;;;;;;;;7.24;57.24;94909.69;5121837;22;20353;-67
2022/12/04 01:53:55;;;;;;;;;;;;;;;7.11;57.00;94904.34;5080191;27;20476;-67
2022/12/04 01:56:23;;;;;;;;;;;;;;;6.57;57.09;94887.13;5118506;27;20019;-67
2022/12/04 01:58:51;;;;;;;;;;;;;;;6.34;58.42;94886.84;5137121;27;20379;-67
2022/12/04 02:01:16;;;;;;;;;;;;;;;6.39;58.53;94886.00;5118538;27;20023;-67
2022/12/04 02:03:41;;;;;;;;;;;;;;;6.12;58.63;94890.03;5118868;27;20015;-67
2022/12/04 02:06:07;;;;;;;;;;;;;;;6.11;59.05;94893.75;5136614;27;20422;-67
2022/12/04 02:08:33;;;;;;;;;;;;;;;6.37;58.55;94893.44;5137400;27;20015;-67
2022/12/04 02:10:58;;;;;;;;;;;;;;;6.48;58.54;94893.03;5137420;27;20008;-68
2022/12/04 02:13:38;;;;;;;;;;;;;;;6.47;58.74;94895.97;5137039;27;20516;-67
2022/12/04 02:16:08;;;;;;;;;;;;;;;6.49;58.06;94899.88;5136684;27;20610;-67
2022/12/04 02:18:33;;;;;;;;;;;;;;;6.38;58.50;94895.81;5118804;27;20093;-67
2022/12/04 02:21:13;;;;;;;;;;;;;;;6.54;58.34;94888.47;5118371;27;20104;-65
2022/12/04 02:24:01;;;;;;;;;;;;;;;6.49;58.60;94877.97;5118512;27;20019;-67
2022/12/04 02:26:30;;;;;;;;;;;;;;;6.51;57.92;94878.47;5118180;27;20086;-67
2022/12/04 02:28:56;;;;;;;;;;;;;;;6.38;58.14;94865.97;5118528;27;20065;-67
2022/12/04 02:31:24;;;;;;;;;;;;;;;6.20;58.77;94870.94;5136973;27;20103;-67
2022/12/04 02:33:54;;;;;;;;;;;;;;;6.48;58.75;94863.19;5137066;27;20008;-67
2022/12/04 02:36:21;;;;;;;;;;;;;;;6.43;58.69;94863.25;5136648;27;20008;-67
2022/12/04 02:38:54;;;;;;;;;;;;;;;6.13;59.02;94859.91;5136819;27;20057;-67
2022/12/04 02:41:22;;;;;;;;;;;;;;;6.20;59.11;94855.09;5136792;27;20022;-67
2022/12/04 02:43:49;;;;;;;;;;;;;;;6.35;59.34;94856.75;5136608;27;20026;-67
2022/12/04 02:46:14;;;;;;;;;;;;;;;6.43;58.91;94848.19;5133532;27;20009;-67
2022/12/04 02:48:41;;;;;;;;;;;;;;;6.50;58.23;94850.50;5133587;27;20031;-67
2022/12/04 02:51:09;;;;;;;;;;;;;;;6.40;58.36;94845.34;5133183;27;20449;-67
2022/12/04 02:53:39;;;;;;;;;;;;;;;6.45;58.35;94842.63;5133523;27;20518;-67
2022/12/04 02:56:08;;;;;;;;;;;;;;;6.06;58.52;94837.56;5114709;27;20454;-67
2022/12/04 02:58:38;;;;;;;;;;;;;;;6.25;58.65;94847.09;5133913;27;20008;-67
2022/12/04 03:01:18;;;;;;;;;;;;;;;6.38;59.23;94845.59;5114934;27;20012;-67
2022/12/04 03:03:46;;;;;;;;;;;;;;;6.40;58.54;94842.69;5114926;27;20052;-68
2022/12/04 03:06:12;;;;;;;;;;;;;;;6.18;58.52;94840.56;5114183;27;20019;-66
2022/12/04 03:08:46;;;;;;;;;;;;;;;6.50;58.52;94829.34;5114683;27;20016;-67
2022/12/04 03:11:11;;;;;;;;;;;;;;;6.64;58.41;94848.69;5114554;27;20012;-67
2022/12/04 03:13:43;;;;;;;;;;;;;;;6.79;57.61;94845.06;5133089;27;20115;-67
2022/12/04 03:16:08;;;;;;;;;;;;;;;6.86;58.14;94844.69;5113595;27;20443;-66
2022/12/04 03:18:42;;;;;;;;;;;;;;;6.58;57.48;94844.56;5113619;27;20059;-67
2022/12/04 03:21:12;;;;;;;;;;;;;;;6.74;57.50;94853.84;5114199;27;20039;-67
2022/12/04 03:23:43;;;;;;;;;;;;;;;6.87;57.22;94844.41;5132956;27;20023;-68
2022/12/04 03:26:17;;;;;;;;;;;;;;;6.77;57.05;94839.28;5113854;27;20065;-68
2022/12/04 03:28:51;;;;;;;;;;;;;;;6.79;58.19;94826.53;5114670;27;20474;-67
2022/12/04 03:31:21;;;;;;;;;;;;;;;6.82;58.46;94830.50;5114277;27;20017;-67
2022/12/04 03:33:46;;;;;;;;;;;;;;;6.95;57.90;94842.97;5114367;27;20012;-67
2022/12/04 03:36:17;;;;;;;;;;;;;;;6.99;57.23;94839.47;5132512;27;20077;-67
2022/12/04 03:38:42;;;;;;;;;;;;;;;6.91;57.65;94847.25;5114320;27;20476;-67
2022/12/04 03:41:12;;;;;;;;;;;;;;;6.93;57.45;94840.63;5132218;27;20065;-67
2022/12/04 03:43:40;;;;;;;;;;;;;;;6.97;57.32;94840.84;5132175;27;20023;-67
2022/12/04 03:46:12;;;;;;;;;;;;;;;6.94;57.41;94850.13;5132051;27;20476;-67
2022/12/04 03:48:42;;;;;;;;;;;;;;;7.02;57.35;94846.81;5114041;27;20544;-67
2022/12/04 03:51:26;;;;;;;;;;;;;;;7.12;56.53;94837.16;5132175;27;20023;-67
2022/12/04 03:53:51;;;;;;;;;;;;;;;6.99;57.13;94833.38;5132138;27;20012;-67
2022/12/04 03:56:19;;;;;;;;;;;;;;;6.97;56.71;94830.25;5131606;27;20012;-67
2022/12/04 03:58:56;;;;;;;;;;;;;;;6.74;56.81;94832.69;5131258;27;20012;-67
2022/12/04 04:01:24;;;;;;;;;;;;;;;6.81;56.92;94819.13;5132294;27;20008;-67
2022/12/04 04:03:50;;;;;;;;;;;;;;;6.77;57.81;94821.56;5132522;27;20008;-67
2022/12/04 04:06:27;;;;;;;;;;;;;;;6.72;58.03;94828.78;5113003;27;20038;-67
2022/12/04 04:08:54;;;;;;;;;;;;;;;6.68;57.23;94817.97;5132102;27;20075;-67
2022/12/04 04:11:24;;;;;;;;;;;;;;;6.71;57.30;94812.13;5113783;27;20039;-67
2022/12/04 04:25:09;;;;;;;;;;;;;;;6.24;58.31;94827.03;5131516;27;20541;-67
2022/12/04 04:27:35;;;;;;;;;;;;;;;5.99;58.39;94758.72;5113203;27;20016;-67
2022/12/04 04:30:00;;;;;;;;;;;;;;;6.55;58.82;94823.97;5131657;27;20392;-67
2022/12/04 04:32:25;;;;;;;;;;;;;;;6.58;57.86;94833.19;5131484;27;20022;-67
2022/12/04 04:35:09;;;;;;;;;;;;;;;6.69;57.78;94827.47;5131256;27;20008;-67
2022/12/04 04:37:40;;;;;;;;;;;;;;;6.32;58.31;94830.13;5131497;27;20012;-68
2022/12/04 04:40:12;;;;;;;;;;;;;;;6.35;58.54;94834.84;5112877;27;20034;-67
2022/12/04 04:42:43;;;;;;;;;;;;;;;6.46;58.66;94823.06;5112872;27;20081;-68
2022/12/04 04:45:15;;;;;;;;;;;;;;;6.45;58.62;94824.13;5112377;27;20015;-67
2022/12/04 04:47:40;;;;;;;;;;;;;;;6.65;57.75;94817.75;5131312;27;20016;-68
2022/12/04 04:50:07;;;;;;;;;;;;;;;6.73;58.21;94814.47;5131160;27;20492;-68
2022/12/04 04:52:33;;;;;;;;;;;;;;;6.68;57.46;94823.25;5130431;27;20027;-67
2022/12/04 04:54:59;;;;;;;;;;;;;;;6.84;57.22;94800.03;5112128;27;20099;-68
2022/12/04 04:57:32;;;;;;;;;;;;;;;6.92;57.84;94817.13;5131060;27;20503;-68
2022/12/04 04:59:58;;;;;;;;;;;;;;;6.87;57.63;94812.69;5112923;27;20559;-68
2022/12/04 05:02:26;;;;;;;;;;;;;;;7.04;56.91;94814.78;5112688;27;20107;-68
2022/12/04 05:04:51;;;;;;;;;;;;;;;7.00;57.14;94819.09;5130647;27;20084;-68
2022/12/04 05:07:17;;;;;;;;;;;;;;;7.07;56.98;94824.03;5130916;27;20073;-66
2022/12/04 05:09:42;;;;;;;;;;;;;;;7.15;56.50;94823.34;5112007;27;20107;-67
2022/12/04 05:12:07;;;;;;;;;;;;;;;7.19;57.20;94817.19;5112252;27;20063;-67
2022/12/04 05:14:32;;;;;;;;;;;;;;;7.23;56.97;94812.91;5112242;27;20066;-66
2022/12/04 05:16:58;;;;;;;;;;;;;;;7.12;56.67;94818.66;5130040;27;20059;-66
2022/12/04 05:22:08;;;;;;;;;;;;;;;7.06;56.48;94811.84;5130816;27;20132;-67
2022/12/04 05:24:33;;;;;;;;;;;;;;;7.08;56.56;94815.78;5130827;27;20012;-67
2022/12/04 05:26:58;;;;;;;;;;;;;;;7.13;57.10;94807.00;5130158;27;20014;-67
2022/12/04 05:29:24;;;;;;;;;;;;;;;7.18;56.32;94806.91;5130749;27;20076;-67
2022/12/04 05:31:49;;;;;;;;;;;;;;;7.15;56.88;94802.97;5112171;28;20024;-67
2022/12/04 05:34:14;;;;;;;;;;;;;;;7.15;56.71;94808.25;5130810;28;20452;-67
2022/12/04 05:36:39;;;;;;;;;;;;;;;7.09;56.49;94811.28;5130037;28;20008;-67
2022/12/04 05:39:04;;;;;;;;;;;;;;;7.06;56.81;94820.56;5112257;28;20011;-67
2022/12/04 05:41:29;;;;;;;;;;;;;;;7.07;56.28;94816.88;5130251;28;20032;-67
2022/12/04 05:43:55;;;;;;;;;;;;;;;7.20;56.84;94824.03;5112345;28;20114;-67
2022/12/04 05:46:20;;;;;;;;;;;;;;;7.23;56.20;94833.28;5111702;28;20105;-67
2022/12/04 05:48:45;;;;;;;;;;;;;;;7.27;56.75;94816.53;5130823;28;20107;-67
2022/12/04 05:51:11;;;;;;;;;;;;;;;7.37;55.81;94818.22;5130518;28;20022;-67
2022/12/04 05:53:36;;;;;;;;;;;;;;;7.40;55.59;94825.56;5112143;28;20020;-67
2022/12/04 05:56:02;;;;;;;;;;;;;;;7.23;56.10;94807.59;5111743;28;20036;-67
2022/12/04 05:58:27;;;;;;;;;;;;;;;6.89;56.63;94813.16;5130215;28;20016;-68
2022/12/04 06:00:53;;;;;;;;;;;;;;;6.99;56.12;94807.72;5130106;28;20015;-67
2022/12/04 06:03:18;;;;;;;;;;;;;;;7.10;56.95;94808.34;5130376;28;20043;-67
2022/12/04 06:05:43;;;;;;;;;;;;;;;7.03;56.47;94803.44;5111432;28;20460;-67
2022/12/04 06:08:09;;;;;;;;;;;;;;;6.87;57.00;94803.97;5129572;28;20081;-67
2022/12/04 06:10:34;;;;;;;;;;;;;;;6.85;57.19;94804.25;5111694;28;20012;-67
2022/12/04 06:12:59;;;;;;;;;;;;;;;6.88;56.47;94795.75;5111375;28;20023;-67
2022/12/04 06:15:24;;;;;;;;;;;;;;;6.93;56.90;94786.94;5111403;28;20016;-66
2022/12/04 06:17:49;;;;;;;;;;;;;;;7.01;56.50;94781.78;5129907;28;20008;-67
2022/12/04 06:20:15;;;;;;;;;;;;;;;7.04;56.25;94788.34;5130519;27;20454;-67
2022/12/04 06:22:40;;;;;;;;;;;;;;;7.19;56.64;94805.84;5115576;27;20019;-67
2022/12/04 06:25:06;;;;;;;;;;;;;;;7.23;56.37;94809.47;5133523;27;20004;-67
2022/12/04 06:27:31;;;;;;;;;;;;;;;7.29;55.70;94817.03;5115555;27;20034;-67
2022/12/04 06:29:57;;;;;;;;;;;;;;;7.34;55.50;94818.81;5115277;27;20039;-67
2022/12/04 06:32:22;;;;;;;;;;;;;;;7.41;56.15;94829.00;5115303;27;20024;-66
2022/12/04 06:34:54;;;;;;;;;;;;;;;7.41;55.65;94823.72;5115323;27;20016;-67
2022/12/04 06:37:20;;;;;;;;;;;;;;;7.39;55.36;94825.88;5133697;27;20012;-67
2022/12/04 06:39:45;;;;;;;;;;;;;;;7.45;55.83;94822.06;5134055;27;20008;-68
2022/12/04 06:42:10;;;;;;;;;;;;;;;7.01;55.60;94815.34;5115269;27;20019;-67
2022/12/04 06:44:35;;;;;;;;;;;;;;;6.44;57.52;94828.63;5133882;27;20044;-66
2022/12/04 06:47:01;;;;;;;;;;;;;;;6.86;57.43;94813.78;5132900;27;20057;-67
2022/12/04 06:49:26;;;;;;;;;;;;;;;7.07;56.60;94808.94;5114953;27;20015;-67
2022/12/04 06:51:51;;;;;;;;;;;;;;;7.18;57.10;94818.28;5133127;27;20024;-67
2022/12/04 06:54:16;;;;;;;;;;;;;;;7.32;56.69;94820.16;5133306;27;20020;-66
2022/12/04 06:56:41;;;;;;;;;;;;;;;7.38;56.72;94811.06;5132929;27;20380;-67
2022/12/04 06:59:07;;;;;;;;;;;;;;;7.19;55.88;94789.97;5114564;27;20384;-66
2022/12/04 07:01:33;;;;;;;;;;;;;;;6.92;56.62;94795.97;5115129;27;20213;-67
2022/12/04 07:04:00;;;;;;;;;;;;;;;7.10;56.68;94796.97;5133316;27;20012;-67
2022/12/04 07:06:26;;;;;;;;;;;;;;;7.18;56.09;94799.75;5114426;27;20016;-67
2022/12/04 07:08:53;;;;;;;;;;;;;;;7.13;56.84;94818.34;5114683;27;20369;-67
2022/12/04 07:11:18;;;;;;;;;;;;;;;7.14;56.58;94825.22;5114547;27;20016;-66
2022/12/04 07:13:44;;;;;;;;;;;;;;;7.26;56.26;94836.13;5133129;27;20020;-66
2022/12/04 07:16:11;;;;;;;;;;;;;;;7.25;56.04;94815.25;5113967;27;20353;-67
2022/12/04 07:18:36;;;;;;;;;;;;;;;7.16;56.60;94809.81;5114497;27;20048;-67
2022/12/04 07:21:06;;;;;;;;;;;;;;;6.14;58.67;94813.97;5132553;27;20435;-67
2022/12/04 07:23:31;;;;;;;;;;;;;;;6.71;57.86;94811.34;5132682;27;20016;-68
2022/12/04 07:25:56;;;;;;;;;;;;;;;6.32;58.78;94819.56;5132215;27;20224;-66
2022/12/04 07:28:21;;;;;;;;;;;;;;;6.24;58.75;94819.13;5114333;27;20019;-66
2022/12/04 07:30:46;;;;;;;;;;;;;;;6.25;59.21;94825.19;5132812;27;20051;-66
2022/12/04 07:33:12;;;;;;;;;;;;;;;6.58;59.19;94826.06;5132418;27;20016;-66
2022/12/04 07:35:37;;;;;;;;;;;;;;;6.65;58.77;94820.41;5132152;27;20012;-65
2022/12/04 07:38:02;;;;;;;;;;;;;;;6.55;58.71;94823.19;5132723;27;20030;-64
2022/12/04 07:40:28;;;;;;;;;;;;;;;6.35;58.47;94827.69;5115168;27;20012;-65
2022/12/04 07:42:53;;;;;;;;;;;;;;;6.15;59.54;94834.03;5113976;27;20019;-64
2022/12/04 07:45:19;;;;;;;;;;;;;;;5.95;60.09;94829.75;5132230;27;20032;-63
2022/12/04 07:47:44;;;;;;;;;;;;;;;6.22;60.34;94826.53;5113784;27;20098;-65
2022/12/04 07:50:10;;;;;;;;;;;;;;;6.17;59.49;94836.38;5114126;27;20118;-66
2022/12/04 07:52:36;;;;;;;;;;;;;;;6.57;59.51;94848.28;5113978;27;20023;-71
2022/12/04 07:55:02;;;;;;;;;;;;;;;6.77;58.29;94834.78;5131560;27;20393;-68
2022/12/04 07:57:27;;;;;;;;;;;;;;;6.91;58.47;94826.91;5113462;27;20020;-66
2022/12/04 07:59:52;;;;;;;;;;;;;;;7.06;57.23;94835.66;5132820;27;20012;-66
2022/12/04 08:02:19;;;;;;;;;;;;;;;7.00;56.77;94837.59;5113370;27;20382;-66
2022/12/04 08:04:44;;;;;;;;;;;;;;;7.14;56.66;94853.53;5132137;27;20009;-68
2022/12/04 08:07:09;;;;;;;;;;;;;;;7.14;56.96;94817.28;5112528;27;20583;-68
2022/12/04 08:09:34;;;;;;;;;;;;;;;7.15;56.88;94821.50;5113041;27;20027;-67
2022/12/04 08:12:00;;;;;;;;;;;;;;;7.31;56.63;94824.66;5112896;27;20391;-75
2022/12/04 08:14:25;;;;;;;;;;;;;;;7.15;56.90;94821.50;5113426;27;20499;-66
2022/12/04 08:16:50;;;;;;;;;;;;;;;7.15;56.71;94810.13;5112659;27;20016;-66
2022/12/04 08:19:15;;;;;;;;;;;;;;;7.15;57.23;94823.34;5112952;27;20069;-66
2022/12/04 08:21:41;;;;;;;;;;;;;;;7.32;56.47;94823.63;5112847;27;20012;-67
2022/12/04 08:24:06;;;;;;;;;;;;;;;7.47;56.06;94825.19;5131451;27;20546;-68
2022/12/04 08:26:32;;;;;;;;;;;;;;;7.53;56.29;94822.19;5130693;27;20019;-68
2022/12/04 08:29:00;;;;;;;;;;;;;;;7.61;55.96;94833.16;5131181;27;20013;-67
2022/12/04 08:31:26;;;;;;;;;;;;;;;7.55;56.21;94827.16;5131273;27;20009;-69
2022/12/04 08:33:53;;;;;;;;;;;;;;;7.47;56.08;94811.94;5113444;27;20012;-65
2022/12/04 08:36:19;;;;;;;;;;;;;;;7.23;56.20;94804.97;5130926;27;20547;-66
2022/12/04 08:38:44;;;;;;;;;;;;;;;6.73;56.93;94751.03;5113076;27;20019;-68
2022/12/04 08:41:11;;;;;;;;;;;;;;;7.43;56.72;94840.88;5112415;27;20397;-67
2022/12/04 08:43:37;;;;;;;;;;;;;;;7.50;56.65;94849.22;5131127;27;20011;-66
2022/12/04 08:46:06;;;;;;;;;;;;;;;7.58;56.68;94842.47;5130517;27;20019;-65
2022/12/04 08:48:32;;;;;;;;;;;;;;;7.62;55.84;94838.16;5130734;27;20117;-66
2022/12/04 08:50:57;;;;;;;;;;;;;;;7.49;56.40;94836.28;5112268;27;20163;-66
2022/12/04 08:53:23;;;;;;;;;;;;;;;7.57;56.46;94843.53;5130958;27;20023;-66
2022/12/04 08:55:48;;;;;;;;;;;;;;;7.63;56.97;94828.38;5111963;27;20402;-67
2022/12/04 08:58:14;;;;;;;;;;;;;;;7.71;56.36;94831.09;5130707;27;20016;-65
2022/12/04 09:00:39;;;;;;;;;;;;;;;7.71;56.58;94827.69;5130835;27;20014;-65
2022/12/04 09:03:05;;;;;;;;;;;;;;;7.81;55.95;94844.16;5130676;27;20065;-65
2022/12/04 09:05:30;;;;;;;;;;;;;;;7.87;55.43;94826.31;5130118;27;20008;-64
2022/12/04 09:07:55;;;;;;;;;;;;;;;7.98;55.40;94816.31;5130921;27;20421;-63
2022/12/04 09:10:21;;;;;;;;;;;;;;;7.46;56.28;94811.16;5130544;27;20008;-65
2022/12/04 09:12:46;;;;;;;;;;;;;;;6.97;58.49;94817.81;5130607;27;20448;-66
2022/12/04 09:15:11;;;;;;;;;;;;;;;7.41;58.04;94821.06;5111662;27;20028;-65
2022/12/04 09:17:36;;;;;;;;;;;;;;;7.62;57.83;94840.00;5130835;27;20012;-65
2022/12/04 09:20:06;;;;;;;;;;;;;;;7.89;57.00;94845.34;5130686;27;20539;-64
2022/12/04 09:22:33;;;;;;;;;;;;;;;7.99;56.50;94823.19;5130557;27;20012;-62
2022/12/04 09:24:58;;;;;;;;;;;;;;;7.83;56.19;94817.41;5111729;27;20454;-63
2022/12/04 09:27:23;;;;;;;;;;;;;;;8.21;56.02;94849.75;5130625;27;20488;-64
2022/12/04 09:29:48;;;;;;;;;;;;;;;8.48;55.46;94845.53;5130811;27;20009;-63
2022/12/04 09:32:14;;;;;;;;;;;;;;;8.28;55.00;94831.59;5130537;27;20012;-64
2022/12/04 09:34:39;;;;;;;;;;;;;;;8.72;55.09;94827.53;5130790;28;20008;-64
2022/12/04 09:37:04;;;;;;;;;;;;;;;8.76;54.75;94833.03;5129963;28;20012;-64
2022/12/04 09:39:29;;;;;;;;;;;;;;;8.38;54.73;94820.03;5112091;28;20016;-64
2022/12/04 09:42:06;;;;;;;;;;;;;;;8.57;54.60;94796.03;5130602;28;20073;-64
2022/12/04 09:44:33;;;;;;;;;;;;;;;8.22;55.68;94789.59;5130500;28;20012;-64
2022/12/04 09:46:59;;;;;;;;;;;;;;;8.27;55.50;94784.19;5129919;28;20014;-64
2022/12/04 09:49:35;;;;;;;;;;;;;;;7.77;56.17;94778.84;5112168;28;20380;-64
2022/12/04 09:52:02;;;;;;;;;;;;;;;8.07;56.17;94796.00;5111907;28;20499;-64
2022/12/04 09:54:37;;;;;;;;;;;;;;;8.41;55.59;94798.25;5131089;27;20008;-64
2022/12/04 09:57:09;;;;;;;;;;;;;;;8.58;55.73;94808.22;5134062;27;20435;-64
2022/12/04 09:59:34;;;;;;;;;;;;;;;8.79;55.16;94817.28;5134696;27;20013;-65
2022/12/04 10:02:18;;;;;;;;;;;;;;;9.08;54.27;94810.78;5134541;27;20442;-65
2022/12/04 10:04:44;;;;;;;;;;;;;;;9.40;53.86;94801.00;5134377;27;20344;-64
2022/12/04 10:07:18;;;;;;;;;;;;;;;9.33;52.66;94788.16;5115293;27;20023;-64
2022/12/04 10:09:54;;;;;;;;;;;;;;;9.47;53.00;94785.41;5115922;27;20011;-64
2022/12/04 10:12:31;;;;;;;;;;;;;;;9.58;52.59;94774.22;5134190;27;20023;-64
2022/12/04 10:15:02;;;;;;;;;;;;;;;9.63;52.20;94758.16;5133513;27;20102;-65
2022/12/04 10:17:46;;;;;;;;;;;;;;;9.63;52.36;94763.47;5134527;27;20130;-64
2022/12/04 10:20:23;;;;;;;;;;;;;;;9.64;52.42;94765.03;5134507;27;20060;-64
2022/12/04 10:22:58;;;;;;;;;;;;;;;8.61;53.10;94749.31;5115520;27;20018;-65
2022/12/04 10:25:25;;;;;;;;;;;;;;;8.90;53.37;94740.13;5133659;27;20054;-64
2022/12/04 10:27:57;;;;;;;;;;;;;;;8.02;55.84;94753.72;5133979;27;20053;-64
2022/12/04 10:30:27;;;;;;;;;;;;;;;8.46;55.33;94773.50;5115412;27;20019;-64
2022/12/04 10:32:58;;;;;;;;;;;;;;;8.76;55.27;94756.91;5133631;27;20020;-63
2022/12/04 10:35:28;;;;;;;;;;;;;;;8.27;55.39;94755.06;5114953;27;20548;-64
2022/12/04 10:37:58;;;;;;;;;;;;;;;8.59;55.21;94754.09;5115495;27;20012;-64
2022/12/04 10:40:27;;;;;;;;;;;;;;;8.88;54.61;94739.66;5115405;27;20549;-64
2022/12/04 10:42:56;;;;;;;;;;;;;;;9.07;54.11;94740.25;5115138;27;20715;-64
2022/12/04 10:45:21;;;;;;;;;;;;;;;9.21;53.60;94748.09;5114772;27;20023;-64
2022/12/04 10:47:49;;;;;;;;;;;;;;;9.28;53.47;94738.63;5115339;27;20115;-64
2022/12/04 10:50:15;;;;;;;;;;;;;;;9.46;53.38;94718.25;5114969;27;20074;-65
2022/12/04 10:52:41;;;;;;;;;;;;;;;8.91;54.11;94715.97;5133399;27;20016;-65
2022/12/04 10:55:06;;;;;;;;;;;;;;;9.02;53.84;94721.81;5114511;27;20729;-64
2022/12/04 10:57:39;;;;;;;;;;;;;;;9.17;54.10;94704.72;5133624;27;20037;-64
2022/12/04 11:00:25;;;;;;;;;;;;;;;9.25;53.88;94701.31;5133526;27;20440;-65
2022/12/04 11:02:52;;;;;;;;;;;;;;;9.07;53.55;94705.75;5114717;27;20251;-65
2022/12/04 11:05:22;;;;;;;;;;;;;;;9.10;54.32;94705.13;5133029;27;20021;-65
2022/12/04 11:07:48;;;;;;;;;;;;;;;9.13;53.99;94685.97;5132170;27;20383;-63
2022/12/04 11:10:32;;;;;;;;;;;;;;;9.10;54.17;94700.59;5114784;27;20011;-64
2022/12/04 11:13:01;;;;;;;;;;;;;;;8.94;54.25;94709.25;5132888;27;20119;-64
2022/12/04 11:15:27;;;;;;;;;;;;;;;8.09;56.14;94727.63;5132580;27;20044;-64
2022/12/04 11:17:53;;;;;;;;;;;;;;;7.71;58.21;94721.78;5132969;27;20433;-64
2022/12/04 11:20:20;;;;;;;;;;;;;;;7.04;60.46;94736.25;5114656;27;20059;-63
2022/12/04 11:22:50;;;;;;;;;;;;;;;7.26;59.59;94740.88;5133065;27;20008;-64
2022/12/04 11:25:17;;;;;;;;;;;;;;;7.71;58.79;94756.19;5132241;27;20057;-64
2022/12/04 11:27:45;;;;;;;;;;;;;;;8.20;58.14;94744.88;5114381;27;20012;-64
2022/12/04 11:30:13;;;;;;;;;;;;;;;8.54;57.70;94733.00;5114434;27;20016;-64
2022/12/04 11:32:40;;;;;;;;;;;;;;;8.69;56.76;94726.56;5114286;27;20444;-64
2022/12/04 11:35:12;;;;;;;;;;;;;;;8.81;56.09;94732.91;5132385;27;20009;-64
2022/12/04 11:37:37;;;;;;;;;;;;;;;8.97;55.42;94735.19;5114008;27;20019;-64
2022/12/04 11:40:05;;;;;;;;;;;;;;;9.18;55.29;94728.28;5114168;27;20012;-64
2022/12/04 11:42:30;;;;;;;;;;;;;;;9.37;54.77;94717.44;5132063;27;20019;-64
2022/12/04 11:44:56;;;;;;;;;;;;;;;9.48;54.34;94718.75;5132034;27;20012;-64
2022/12/04 11:47:22;;;;;;;;;;;;;;;9.43;54.02;94718.09;5132282;27;20009;-64
2022/12/04 11:50:02;;;;;;;;;;;;;;;9.46;53.40;94720.13;5132519;27;20491;-64
2022/12/04 11:52:43;;;;;;;;;;;;;;;9.32;53.51;94707.75;5113901;27;20386;-64
2022/12/04 11:55:27;;;;;;;;;;;;;;;8.07;56.40;94713.88;5113198;27;20115;-64
2022/12/04 11:57:56;;;;;;;;;;;;;;;8.67;55.92;94710.19;5113593;27;20058;-64
2022/12/04 12:00:22;;;;;;;;;;;;;;;8.92;55.73;94706.91;5114014;27;20012;-63
2022/12/04 12:03:06;;;;;;;;;;;;;;;8.86;55.21;94694.88;5132545;27;20536;-63
2022/12/04 12:05:52;;;;;;;;;;;;;;;9.00;55.45;94694.78;5112877;27;20012;-63
2022/12/04 12:08:36;;;;;;;;;;;;;;;9.04;55.11;94690.44;5113506;27;20512;-63
2022/12/04 12:11:15;;;;;;;;;;;;;;;9.15;54.67;94691.72;5113200;27;20488;-64
2022/12/04 12:13:46;;;;;;;;;;;;;;;9.28;54.44;94690.88;5131472;27;20020;-63
2022/12/04 12:16:29;;;;;;;;;;;;;;;9.45;54.17;94678.75;5131183;27;20015;-64
2022/12/04 12:18:55;;;;;;;;;;;;;;;9.57;54.34;94678.94;5130675;27;20103;-65
2022/12/04 12:21:31;;;;;;;;;;;;;;;9.48;54.35;94675.50;5113231;27;20111;-64
2022/12/04 12:23:57;;;;;;;;;;;;;;;9.58;54.14;94669.91;5113350;27;20559;-63
2022/12/04 12:26:26;;;;;;;;;;;;;;;9.71;53.62;94676.94;5130921;27;20098;-63
2022/12/04 12:29:15;;;;;;;;;;;;;;;9.72;53.51;94665.22;5131266;27;20019;-63
2022/12/04 12:31:46;;;;;;;;;;;;;;;9.74;52.68;94671.03;5131373;27;20008;-63
2022/12/04 12:34:18;;;;;;;;;;;;;;;9.83;52.79;94671.81;5113021;27;20012;-63
2022/12/04 12:36:46;;;;;;;;;;;;;;;9.90;52.69;94677.44;5130909;27;20015;-63
2022/12/04 12:39:14;;;;;;;;;;;;;;;9.91;52.66;94678.22;5112835;27;20020;-64
2022/12/04 12:41:46;;;;;;;;;;;;;;;9.97;53.21;94671.66;5131489;27;20055;-63
2022/12/04 12:44:16;;;;;;;;;;;;;;;10.03;52.44;94681.06;5131435;27;20030;-63
2022/12/04 12:46:47;;;;;;;;;;;;;;;10.03;52.39;94680.28;5131008;27;20008;-64
2022/12/04 12:49:16;;;;;;;;;;;;;;;9.93;51.90;94669.94;5112865;27;20456;-64
2022/12/04 12:51:47;;;;;;;;;;;;;;;10.06;52.31;94659.19;5112505;27;20024;-64
2022/12/04 12:54:18;;;;;;;;;;;;;;;10.11;52.50;94652.94;5131081;27;20019;-64
2022/12/04 12:56:47;;;;;;;;;;;;;;;10.09;52.45;94652.47;5112218;27;20498;-64
2022/12/04 12:59:15;;;;;;;;;;;;;;;10.01;52.24;94650.59;5112384;27;20483;-64
2022/12/04 13:01:53;;;;;;;;;;;;;;;10.08;52.42;94653.53;5112743;27;20027;-64
2022/12/04 13:04:31;;;;;;;;;;;;;;;10.07;52.46;94644.00;5112713;27;20493;-64
2022/12/04 13:07:19;;;;;;;;;;;;;;;10.07;52.47;94654.66;5130526;27;20421;-64
2022/12/04 13:10:17;;;;;;;;;;;;;;;10.00;52.62;94649.03;5106730;27;20111;-64
2022/12/04 13:12:48;;;;;;;;;;;;;;;9.58;52.70;94638.03;5056690;27;20027;-64
2022/12/04 13:15:14;;;;;;;;;;;;;;;9.18;53.62;94622.16;5111351;27;20064;-64
2022/12/04 13:17:41;;;;;;;;;;;;;;;9.22;54.23;94630.28;5130760;27;20008;-64